createdAt,value
2023-04-23T00:01:59.675Z,8.30
2023-04-23T00:04:28.823Z,8.20
2023-04-23T00:06:56.651Z,8.30
2023-04-23T00:09:24.063Z,8.30
2023-04-23T00:11:50.958Z,8.30
2023-04-23T00:14:17.748Z,8.20
2023-04-23T00:16:44.877Z,8.10
2023-04-23T00:19:11.710Z,8.20
2023-04-23T00:21:38.420Z,8.20
2023-04-23T00:24:05.325Z,8.10
2023-04-23T00:26:31.944Z,8.20
2023-04-23T00:28:58.592Z,8.10
2023-04-23T00:31:27.144Z,8.10
2023-04-23T00:33:54.031Z,8.10
2023-04-23T00:36:20.714Z,8.10
2023-04-23T00:38:47.992Z,8.10
2023-04-23T00:41:15.228Z,8.00
2023-04-23T00:43:41.886Z,8.00
2023-04-23T00:46:08.898Z,8.10
2023-04-23T00:48:36.912Z,8.00
2023-04-23T00:51:05.419Z,8.00
2023-04-23T00:53:33.289Z,8.00
2023-04-23T00:56:04.117Z,8.00
2023-04-23T00:58:31.427Z,8.00
2023-04-23T01:00:58.265Z,8.10
2023-04-23T01:03:26.875Z,8.10
2023-04-23T01:05:53.630Z,8.10
2023-04-23T01:08:23.231Z,8.10
2023-04-23T01:10:49.991Z,8.10
2023-04-23T01:13:17.098Z,8.10
2023-04-23T01:15:45.409Z,8.10
2023-04-23T01:18:12.849Z,8.10
2023-04-23T01:20:39.587Z,8.10
2023-04-23T01:23:06.763Z,8.10
2023-04-23T01:25:34.145Z,8.10
2023-04-23T01:28:01.442Z,8.10
2023-04-23T01:30:28.470Z,8.10
2023-04-23T01:32:56.282Z,8.20
2023-04-23T01:35:24.394Z,8.20
2023-04-23T01:37:52.391Z,8.20
2023-04-23T01:40:20.288Z,8.20
2023-04-23T01:42:48.472Z,8.20
2023-04-23T01:45:15.543Z,8.20
2023-04-23T01:47:42.371Z,8.20
2023-04-23T01:50:09.810Z,8.20
2023-04-23T01:52:36.572Z,8.30
2023-04-23T01:55:03.704Z,8.30
2023-04-23T01:57:30.768Z,8.30
2023-04-23T02:00:11.245Z,8.30
2023-04-23T02:02:39.663Z,8.30
2023-04-23T02:05:15.087Z,8.30
2023-04-23T02:07:42.108Z,8.30
2023-04-23T02:10:09.664Z,8.40
2023-04-23T02:12:40.242Z,8.40
2023-04-23T02:15:11.807Z,8.40
2023-04-23T02:17:39.930Z,8.40
2023-04-23T02:20:09.719Z,8.40
2023-04-23T02:22:40.942Z,8.40
2023-04-23T02:25:08.494Z,8.40
2023-04-23T02:27:35.979Z,8.40
2023-04-23T02:30:03.490Z,8.40
2023-04-23T02:32:31.013Z,8.40
2023-04-23T02:34:58.934Z,8.40
2023-04-23T02:37:26.762Z,8.40
2023-04-23T02:39:53.433Z,8.40
2023-04-23T02:42:20.007Z,8.40
2023-04-23T02:44:46.665Z,8.40
2023-04-23T02:47:16.233Z,8.40
2023-04-23T02:49:42.839Z,8.50
2023-04-23T02:52:09.763Z,8.50
2023-04-23T02:54:37.056Z,8.50
2023-04-23T02:57:04.817Z,8.50
2023-04-23T02:59:31.462Z,8.50
2023-04-23T03:01:58.206Z,8.50
2023-04-23T03:04:24.993Z,8.50
2023-04-23T03:06:51.633Z,8.50
2023-04-23T03:09:18.583Z,8.50
2023-04-23T03:11:45.168Z,8.50
2023-04-23T03:14:12.130Z,8.50
2023-04-23T03:16:39.042Z,8.50
2023-04-23T03:19:05.762Z,8.50
2023-04-23T03:21:32.469Z,8.60
2023-04-23T03:23:59.022Z,8.50
2023-04-23T03:26:25.676Z,8.50
2023-04-23T03:28:52.557Z,8.50
2023-04-23T03:31:19.267Z,8.50
2023-04-23T03:33:46.015Z,8.50
2023-04-23T03:36:12.645Z,8.50
2023-04-23T03:38:39.315Z,8.50
2023-04-23T03:41:06.216Z,8.50
2023-04-23T03:43:32.972Z,8.40
2023-04-23T03:45:59.569Z,8.40
2023-04-23T03:48:26.204Z,8.40
2023-04-23T03:50:52.878Z,8.40
2023-04-23T03:53:19.490Z,8.40
2023-04-23T03:55:46.100Z,8.40
2023-04-23T03:58:12.757Z,8.40
2023-04-23T04:00:39.399Z,8.40
2023-04-23T04:03:06.172Z,8.40
2023-04-23T04:05:32.952Z,8.30
2023-04-23T04:07:59.631Z,8.40
2023-04-23T04:10:26.283Z,8.30
2023-04-23T04:12:53.000Z,8.30
2023-04-23T04:15:20.756Z,8.30
2023-04-23T04:17:47.723Z,8.30
2023-04-23T04:20:14.475Z,8.20
2023-04-23T04:22:41.224Z,8.20
2023-04-23T04:25:08.309Z,8.20
2023-04-23T04:27:35.714Z,8.10
2023-04-23T04:30:02.392Z,8.10
2023-04-23T04:32:29.061Z,8.20
2023-04-23T04:34:55.703Z,8.10
2023-04-23T04:37:22.399Z,8.10
2023-04-23T04:39:49.160Z,8.10
2023-04-23T04:42:16.207Z,8.10
2023-04-23T04:44:43.610Z,8.20
2023-04-23T04:47:10.824Z,8.20
2023-04-23T04:49:38.267Z,8.20
2023-04-23T04:52:04.952Z,8.20
2023-04-23T04:54:31.649Z,8.30
2023-04-23T04:56:58.211Z,8.30
2023-04-23T04:59:24.952Z,8.30
2023-04-23T05:01:51.628Z,8.30
2023-04-23T05:04:18.380Z,8.30
2023-04-23T05:06:45.373Z,8.20
2023-04-23T05:09:12.063Z,8.20
2023-04-23T05:11:39.544Z,8.20
2023-04-23T05:14:06.199Z,8.20
2023-04-23T05:16:33.126Z,8.10
2023-04-23T05:18:59.831Z,8.20
2023-04-23T05:21:27.606Z,8.20
2023-04-23T05:23:55.202Z,8.10
2023-04-23T05:26:21.854Z,8.20
2023-04-23T05:28:48.456Z,8.10
2023-04-23T05:31:15.230Z,8.20
2023-04-23T05:33:50.154Z,8.10
2023-04-23T05:36:18.025Z,8.20
2023-04-23T05:38:44.857Z,8.20
2023-04-23T05:41:11.696Z,8.20
2023-04-23T05:43:38.449Z,8.30
2023-04-23T05:46:07.152Z,8.30
2023-04-23T05:48:34.440Z,8.30
2023-04-23T05:51:01.145Z,8.40
2023-04-23T05:53:28.362Z,8.40
2023-04-23T05:55:54.931Z,8.50
2023-04-23T05:58:21.734Z,8.60
2023-04-23T06:00:48.409Z,8.60
2023-04-23T06:03:15.121Z,8.70
2023-04-23T06:05:43.224Z,8.80
2023-04-23T06:08:09.985Z,8.80
2023-04-23T06:10:36.691Z,8.90
2023-04-23T06:13:03.419Z,8.90
2023-04-23T06:15:30.066Z,8.90
2023-04-23T06:17:56.825Z,9.00
2023-04-23T06:20:23.448Z,9.10
2023-04-23T06:22:50.051Z,9.20
2023-04-23T06:25:16.639Z,9.20
2023-04-23T06:27:43.332Z,9.40
2023-04-23T06:30:10.253Z,9.40
2023-04-23T06:32:37.027Z,9.50
2023-04-23T06:35:04.547Z,9.60
2023-04-23T06:37:31.770Z,9.70
2023-04-23T06:39:59.580Z,9.80
2023-04-23T06:42:26.253Z,9.90
2023-04-23T06:44:52.982Z,10.00
2023-04-23T06:47:19.819Z,10.10
2023-04-23T06:49:46.508Z,10.20
2023-04-23T06:52:13.183Z,10.20
2023-04-23T06:54:40.095Z,10.40
2023-04-23T06:57:07.078Z,10.50
2023-04-23T06:59:33.745Z,10.60
2023-04-23T07:02:00.614Z,10.60
2023-04-23T07:04:27.244Z,10.70
2023-04-23T07:06:54.078Z,10.80
2023-04-23T07:09:21.035Z,10.90
2023-04-23T07:11:47.701Z,11.00
2023-04-23T07:14:14.718Z,11.10
2023-04-23T07:16:41.596Z,11.10
2023-04-23T07:19:08.265Z,11.20
2023-04-23T07:21:35.824Z,11.30
2023-04-23T07:24:07.369Z,11.50
2023-04-23T07:26:35.049Z,11.50
2023-04-23T07:29:02.740Z,11.50
2023-04-23T07:31:29.583Z,11.60
2023-04-23T07:33:56.708Z,11.60
2023-04-23T07:36:23.609Z,11.70
2023-04-23T07:38:50.919Z,11.80
2023-04-23T07:41:17.884Z,11.90
2023-04-23T07:43:44.568Z,11.90
2023-04-23T07:46:11.188Z,12.00
2023-04-23T07:48:37.787Z,12.10
2023-04-23T07:51:06.404Z,12.20
2023-04-23T07:53:33.229Z,12.30
2023-04-23T07:56:00.518Z,12.30
2023-04-23T07:58:27.332Z,12.30
2023-04-23T08:00:54.046Z,12.40
2023-04-23T08:03:21.115Z,12.50
2023-04-23T08:05:48.157Z,12.60
2023-04-23T08:08:14.900Z,12.70
2023-04-23T08:10:41.953Z,12.80
2023-04-23T08:13:08.822Z,12.70
2023-04-23T08:15:35.814Z,12.80
2023-04-23T08:18:04.178Z,13.00
2023-04-23T08:20:32.251Z,13.00
2023-04-23T08:22:59.127Z,13.10
2023-04-23T08:25:25.787Z,13.10
2023-04-23T08:27:52.493Z,13.20
2023-04-23T08:30:19.196Z,13.10
2023-04-23T08:32:50.703Z,13.20
2023-04-23T08:35:18.706Z,13.30
2023-04-23T08:37:46.202Z,13.50
2023-04-23T08:40:13.275Z,13.50
2023-04-23T08:42:58.648Z,13.60
2023-04-23T08:45:26.352Z,13.70
2023-04-23T08:48:00.309Z,13.70
2023-04-23T08:50:29.554Z,13.70
2023-04-23T08:52:58.041Z,13.80
2023-04-23T08:55:25.935Z,13.90
2023-04-23T08:57:52.761Z,14.00
2023-04-23T09:00:23.209Z,14.10
2023-04-23T09:02:50.816Z,14.20
2023-04-23T09:05:17.988Z,14.20
2023-04-23T09:07:45.387Z,14.30
2023-04-23T09:10:16.866Z,14.40
2023-04-23T09:12:45.328Z,14.50
2023-04-23T09:15:13.063Z,14.60
2023-04-23T09:17:41.577Z,14.60
2023-04-23T09:20:11.478Z,14.70
2023-04-23T09:22:43.191Z,14.90
2023-04-23T09:25:13.452Z,14.90
2023-04-23T09:27:41.726Z,14.90
2023-04-23T09:30:10.865Z,15.10
2023-04-23T09:32:57.577Z,15.20
2023-04-23T09:35:28.103Z,15.30
2023-04-23T09:37:55.040Z,15.30
2023-04-23T09:40:24.416Z,15.20
2023-04-23T09:42:55.666Z,15.50
2023-04-23T09:45:22.892Z,15.60
2023-04-23T09:47:54.507Z,15.60
2023-04-23T09:50:32.469Z,15.60
2023-04-23T09:52:59.186Z,15.50
2023-04-23T09:55:38.787Z,15.60
2023-04-23T09:58:06.886Z,15.60
2023-04-23T10:00:38.696Z,15.60
2023-04-23T10:03:08.620Z,15.70
2023-04-23T10:08:16.002Z,15.90
2023-04-23T10:10:57.429Z,16.10
2023-04-23T10:13:29.797Z,16.30
2023-04-23T10:16:02.521Z,16.40
2023-04-23T10:18:37.808Z,16.10
2023-04-23T10:21:06.093Z,16.10
2023-04-23T10:23:38.705Z,16.30
2023-04-23T10:26:07.288Z,16.50
2023-04-23T10:28:35.079Z,16.40
2023-04-23T10:31:04.088Z,16.30
2023-04-23T10:33:39.948Z,16.50
2023-04-23T10:36:12.960Z,16.50
2023-04-23T10:38:56.938Z,16.40
2023-04-23T10:41:29.891Z,16.50
2023-04-23T10:44:01.171Z,16.40
2023-04-23T10:46:30.681Z,16.60
2023-04-23T10:49:10.344Z,16.60
2023-04-23T10:54:09.798Z,17.10
2023-04-23T10:56:38.860Z,17.20
2023-04-23T10:59:26.960Z,17.20
2023-04-23T11:01:53.593Z,17.20
2023-04-23T11:04:29.991Z,16.90
2023-04-23T11:07:04.078Z,17.30
2023-04-23T11:09:36.873Z,17.60
2023-04-23T11:12:11.527Z,17.50
2023-04-23T11:14:45.767Z,17.70
2023-04-23T11:17:13.356Z,17.50
2023-04-23T11:19:41.618Z,17.50
2023-04-23T11:22:19.295Z,17.40
2023-04-23T11:24:49.550Z,17.40
2023-04-23T11:27:18.611Z,17.50
2023-04-23T11:29:46.838Z,17.30
2023-04-23T11:32:17.309Z,17.00
2023-04-23T11:34:46.290Z,17.20
2023-04-23T11:37:17.441Z,17.30
2023-04-23T11:39:45.901Z,17.70
2023-04-23T11:42:17.275Z,18.00
2023-04-23T11:44:45.349Z,18.10
2023-04-23T11:47:13.941Z,18.00
2023-04-23T11:49:45.496Z,17.70
2023-04-23T11:52:14.424Z,17.90
2023-04-23T11:54:42.116Z,17.80
2023-04-23T11:57:10.067Z,17.80
2023-04-23T11:59:36.810Z,17.60
2023-04-23T12:02:03.426Z,17.50
2023-04-23T12:04:31.568Z,17.40
2023-04-23T12:06:59.404Z,17.50
2023-04-23T12:09:29.162Z,17.60
2023-04-23T12:12:05.865Z,17.60
2023-04-23T12:14:33.372Z,17.90
2023-04-23T12:17:10.054Z,17.80
2023-04-23T12:19:36.949Z,17.90
2023-04-23T12:22:04.496Z,18.20
2023-04-23T12:24:45.121Z,17.90
2023-04-23T12:27:15.804Z,18.20
2023-04-23T12:29:42.765Z,18.10
2023-04-23T12:32:11.744Z,18.30
2023-04-23T12:34:52.869Z,18.50
2023-04-23T12:37:27.250Z,18.90
2023-04-23T12:39:59.480Z,19.30
2023-04-23T12:42:26.709Z,19.20
2023-04-23T12:44:55.724Z,19.10
2023-04-23T12:47:22.629Z,19.30
2023-04-23T12:49:53.458Z,19.00
2023-04-23T12:52:20.779Z,19.10
2023-04-23T12:54:51.737Z,18.90
2023-04-23T12:57:23.294Z,18.90
2023-04-23T12:59:50.261Z,18.60
2023-04-23T13:02:16.962Z,18.20
2023-04-23T13:04:43.630Z,18.40
2023-04-23T13:07:10.281Z,18.20
2023-04-23T13:09:36.982Z,18.30
2023-04-23T13:12:03.699Z,18.10
2023-04-23T13:14:32.038Z,18.10
2023-04-23T13:16:58.682Z,18.30
2023-04-23T13:19:25.927Z,18.30
2023-04-23T13:21:52.565Z,17.90
2023-04-23T13:24:19.292Z,18.10
2023-04-23T13:26:45.885Z,18.20
2023-04-23T13:29:12.590Z,18.10
2023-04-23T13:31:39.274Z,18.20
2023-04-23T13:34:05.861Z,18.20
2023-04-23T13:36:32.623Z,18.00
2023-04-23T13:38:59.352Z,18.20
2023-04-23T13:41:25.955Z,18.20
2023-04-23T13:43:53.955Z,18.10
2023-04-23T13:46:20.882Z,18.00
2023-04-23T13:48:47.528Z,18.20
2023-04-23T13:51:32.588Z,18.30
2023-04-23T13:54:01.210Z,18.50
2023-04-23T13:56:27.913Z,18.30
2023-04-23T13:59:02.100Z,18.20
2023-04-23T14:01:31.734Z,18.30
2023-04-23T14:03:58.497Z,18.30
2023-04-23T14:06:25.469Z,18.20
2023-04-23T14:08:52.040Z,17.90
2023-04-23T14:11:19.137Z,17.80
2023-04-23T14:13:46.816Z,17.70
2023-04-23T14:16:13.909Z,17.90
2023-04-23T14:18:40.536Z,17.90
2023-04-23T14:21:07.535Z,17.70
2023-04-23T14:23:49.108Z,17.70
2023-04-23T14:26:44.924Z,17.90
2023-04-23T14:29:36.285Z,17.90
2023-04-23T14:32:02.931Z,17.70
2023-04-23T14:34:29.648Z,17.90
2023-04-23T14:36:56.617Z,17.60
2023-04-23T14:39:24.329Z,17.50
2023-04-23T14:41:51.079Z,17.40
2023-04-23T14:44:18.009Z,17.10
2023-04-23T14:46:44.762Z,16.90
2023-04-23T14:49:11.590Z,16.80
2023-04-23T14:51:38.467Z,16.30
2023-04-23T14:54:05.291Z,16.10
2023-04-23T14:56:32.090Z,16.00
2023-04-23T14:58:58.689Z,15.70
2023-04-23T15:01:25.284Z,15.50
2023-04-23T15:03:53.365Z,15.00
2023-04-23T15:06:20.196Z,14.90
2023-04-23T15:08:46.871Z,14.70
2023-04-23T15:11:13.733Z,14.50
2023-04-23T15:14:23.335Z,14.40
2023-04-23T15:16:50.492Z,14.20
2023-04-23T15:19:18.623Z,14.00
2023-04-23T15:21:46.453Z,14.00
2023-04-23T15:24:13.238Z,14.30
2023-04-23T15:26:40.069Z,14.10
2023-04-23T15:29:10.257Z,14.10
2023-04-23T15:31:38.333Z,14.20
2023-04-23T15:34:07.440Z,13.90
2023-04-23T15:36:35.668Z,14.00
2023-04-23T15:39:02.403Z,13.80
2023-04-23T15:41:28.997Z,13.70
2023-04-23T15:43:56.473Z,14.00
2023-04-23T15:46:23.156Z,13.70
2023-04-23T15:48:49.802Z,13.70
2023-04-23T15:51:16.533Z,13.60
2023-04-23T15:53:43.196Z,13.70
2023-04-23T15:56:09.792Z,13.70
2023-04-23T15:58:36.402Z,13.70
2023-04-23T16:01:03.434Z,13.70
2023-04-23T16:03:30.413Z,13.60
2023-04-23T16:05:57.262Z,13.50
2023-04-23T16:08:23.879Z,13.40
2023-04-23T16:10:50.548Z,13.40
2023-04-23T16:13:17.228Z,13.30
2023-04-23T16:15:44.294Z,13.40
2023-04-23T16:18:11.302Z,13.20
2023-04-23T16:20:37.931Z,13.30
2023-04-23T16:23:06.513Z,13.30
2023-04-23T16:25:33.472Z,13.40
2023-04-23T16:28:00.372Z,13.50
2023-04-23T16:30:27.073Z,13.50
2023-04-23T16:32:53.974Z,13.40
2023-04-23T16:35:20.686Z,13.40
2023-04-23T16:37:47.453Z,13.50
2023-04-23T16:40:15.651Z,13.50
2023-04-23T16:42:43.506Z,13.40
2023-04-23T16:45:10.619Z,13.50
2023-04-23T16:47:37.847Z,13.50
2023-04-23T16:50:04.714Z,13.50
2023-04-23T16:52:31.368Z,13.40
2023-04-23T16:54:58.237Z,13.40
2023-04-23T16:57:25.760Z,13.30
2023-04-23T16:59:52.815Z,13.30
2023-04-23T17:02:21.056Z,13.30
2023-04-23T17:04:48.319Z,13.20
2023-04-23T17:07:15.372Z,13.20
2023-04-23T17:09:42.335Z,13.10
2023-04-23T17:12:09.238Z,13.00
2023-04-23T17:14:36.053Z,13.10
2023-04-23T17:17:02.704Z,13.20
2023-04-23T17:19:29.451Z,13.10
2023-04-23T17:21:56.225Z,13.20
2023-04-23T17:24:23.105Z,13.20
2023-04-23T17:26:52.834Z,13.30
2023-04-23T17:29:19.418Z,13.10
2023-04-23T17:31:46.085Z,13.10
2023-04-23T17:34:12.807Z,13.10
2023-04-23T17:36:39.473Z,13.10
2023-04-23T17:39:07.508Z,13.00
2023-04-23T17:41:34.166Z,13.00
2023-04-23T17:44:00.869Z,12.90
2023-04-23T17:46:27.616Z,12.90
2023-04-23T17:48:56.177Z,12.80
2023-04-23T17:51:24.606Z,12.80
2023-04-23T17:53:51.922Z,12.90
2023-04-23T17:56:18.597Z,12.80
2023-04-23T17:58:48.562Z,12.70
2023-04-23T18:01:17.572Z,12.80
2023-04-23T18:03:44.781Z,12.80
2023-04-23T18:06:12.104Z,12.70
2023-04-23T18:08:41.220Z,12.70
2023-04-23T18:11:09.500Z,12.60
2023-04-23T18:13:36.565Z,12.60
2023-04-23T18:16:05.571Z,12.60
2023-04-23T18:18:32.241Z,12.60
2023-04-23T18:21:01.423Z,12.60
2023-04-23T18:23:29.130Z,12.60
2023-04-23T18:25:56.617Z,12.50
2023-04-23T18:28:23.250Z,12.50
2023-04-23T18:30:50.028Z,12.50
2023-04-23T18:33:36.174Z,12.50
2023-04-23T18:36:10.285Z,12.50
2023-04-23T18:38:42.910Z,12.50
2023-04-23T18:41:09.534Z,12.60
2023-04-23T18:43:36.320Z,12.50
2023-04-23T18:46:03.887Z,12.50
2023-04-23T18:48:33.525Z,12.40
2023-04-23T18:51:05.942Z,12.40
2023-04-23T18:53:32.682Z,12.50
2023-04-23T18:55:59.276Z,12.60
2023-04-23T18:58:25.950Z,12.50
2023-04-23T19:00:52.615Z,12.50
2023-04-23T19:03:26.690Z,12.50
2023-04-23T19:05:53.891Z,12.40
2023-04-23T19:08:21.295Z,12.30
2023-04-23T19:10:50.409Z,12.30
2023-04-23T19:13:18.736Z,12.30
2023-04-23T19:15:45.804Z,12.30
2023-04-23T19:18:12.748Z,12.30
2023-04-23T19:20:39.506Z,12.30
2023-04-23T19:23:06.261Z,12.30
2023-04-23T19:25:33.639Z,12.30
2023-04-23T19:28:00.454Z,12.30
2023-04-23T19:30:27.145Z,12.20
2023-04-23T19:32:53.835Z,12.20
2023-04-23T19:35:21.989Z,12.20
2023-04-23T19:37:48.678Z,12.20
2023-04-23T19:40:15.537Z,12.20
2023-04-23T19:42:42.494Z,12.20
2023-04-23T19:45:09.465Z,12.20
2023-04-23T19:47:38.780Z,12.20
2023-04-23T19:50:07.224Z,12.20
2023-04-23T19:52:34.021Z,12.20
2023-04-23T19:55:00.762Z,12.20
2023-04-23T19:57:28.208Z,12.10
2023-04-23T19:59:54.849Z,12.00
2023-04-23T20:02:21.583Z,12.10
2023-04-23T20:04:48.306Z,12.00
2023-04-23T20:07:15.374Z,12.00
2023-04-23T20:09:42.254Z,12.00
2023-04-23T20:12:09.165Z,12.00
2023-04-23T20:14:35.848Z,12.00
2023-04-23T20:17:02.497Z,12.00
2023-04-23T20:19:31.219Z,11.90
2023-04-23T20:21:57.960Z,11.90
2023-04-23T20:24:24.619Z,11.90
2023-04-23T20:26:51.347Z,11.90
2023-04-23T20:29:17.997Z,11.80
2023-04-23T20:31:49.120Z,11.70
2023-04-23T20:34:16.729Z,11.70
2023-04-23T20:36:46.958Z,11.70
2023-04-23T20:39:13.688Z,11.80
2023-04-23T20:41:40.335Z,11.80
2023-04-23T20:44:06.947Z,11.80
2023-04-23T20:46:33.585Z,11.80
2023-04-23T20:49:03.097Z,11.80
2023-04-23T20:51:34.716Z,11.80
2023-04-23T20:54:02.309Z,11.80
2023-04-23T20:56:29.830Z,11.80
2023-04-23T20:58:59.936Z,11.80
2023-04-23T21:01:27.078Z,11.80
2023-04-23T21:03:54.257Z,11.70
2023-04-23T21:06:22.069Z,11.70
2023-04-23T21:08:48.741Z,11.70
2023-04-23T21:11:17.645Z,11.70
2023-04-23T21:13:47.357Z,11.60
2023-04-23T21:16:14.224Z,11.50
2023-04-23T21:18:41.414Z,11.40
2023-04-23T21:21:08.212Z,11.30
2023-04-23T21:23:35.572Z,11.30
2023-04-23T21:26:03.223Z,11.30
2023-04-23T21:28:29.936Z,11.40
2023-04-23T21:31:01.098Z,11.40
2023-04-23T21:33:27.795Z,11.40
2023-04-23T21:35:54.434Z,11.40
2023-04-23T21:38:21.491Z,11.30
2023-04-23T21:40:48.526Z,11.30
2023-04-23T21:43:15.297Z,11.20
2023-04-23T21:45:41.994Z,11.20
2023-04-23T21:48:08.892Z,11.20
2023-04-23T21:50:36.107Z,11.20
2023-04-23T21:53:04.052Z,11.00
2023-04-23T21:55:31.726Z,11.00
2023-04-23T21:58:09.893Z,11.00
2023-04-23T22:00:44.324Z,11.10
2023-04-23T22:03:11.841Z,10.90
2023-04-23T22:05:39.838Z,11.00
2023-04-23T22:08:09.732Z,10.90
2023-04-23T22:10:42.750Z,10.90
2023-04-23T22:13:10.221Z,10.90
2023-04-23T22:15:37.045Z,10.90
2023-04-23T22:18:03.858Z,10.80
2023-04-23T22:20:30.695Z,10.90
2023-04-23T22:22:57.600Z,10.90
2023-04-23T22:25:24.271Z,10.70
2023-04-23T22:27:50.886Z,10.70
2023-04-23T22:30:17.589Z,10.70
2023-04-23T22:32:44.418Z,10.70
2023-04-23T22:35:11.409Z,10.60
2023-04-23T22:37:38.364Z,10.50
2023-04-23T22:40:07.704Z,10.40
2023-04-23T22:42:34.327Z,10.30
2023-04-23T22:45:01.638Z,10.30
2023-04-23T22:47:28.319Z,10.30
2023-04-23T22:49:55.046Z,10.20
2023-04-23T22:52:21.666Z,10.20
2023-04-23T22:54:48.445Z,10.10
2023-04-23T22:57:15.113Z,10.00
2023-04-23T22:59:42.141Z,10.00
2023-04-23T23:02:09.040Z,10.00
2023-04-23T23:04:38.456Z,9.90
2023-04-23T23:07:06.126Z,9.90
2023-04-23T23:09:32.948Z,10.00
2023-04-23T23:12:02.268Z,9.90
2023-04-23T23:14:29.528Z,9.90
2023-04-23T23:16:57.165Z,9.90
2023-04-23T23:19:24.886Z,9.80
2023-04-23T23:21:51.759Z,9.80
2023-04-23T23:24:19.146Z,9.80
2023-04-23T23:26:46.581Z,9.80
2023-04-23T23:29:13.234Z,9.70
2023-04-23T23:31:40.231Z,9.70
2023-04-23T23:34:06.930Z,9.70
2023-04-23T23:36:34.188Z,9.70
2023-04-23T23:39:01.752Z,9.70
2023-04-23T23:41:28.494Z,9.60
2023-04-23T23:43:55.304Z,9.60
2023-04-23T23:46:22.661Z,9.60
2023-04-23T23:48:49.373Z,9.50
2023-04-23T23:51:16.152Z,9.60
2023-04-23T23:53:42.957Z,9.60
2023-04-23T23:56:09.533Z,9.60
2023-04-23T23:58:36.512Z,9.60
